createdAt,value
2022-08-20T00:00:24.089Z,10.57
2022-08-20T00:03:11.616Z,11.00
2022-08-20T00:05:44.668Z,9.60
2022-08-20T00:08:15.273Z,14.23
2022-08-20T00:10:49.726Z,9.50
2022-08-20T00:13:26.629Z,15.57
2022-08-20T00:15:56.488Z,12.15
2022-08-20T00:20:58.039Z,12.77
2022-08-20T00:23:28.290Z,11.65
2022-08-20T00:25:57.734Z,10.60
2022-08-20T00:28:27.065Z,13.77
2022-08-20T00:30:56.688Z,13.80
2022-08-20T00:33:27.626Z,11.07
2022-08-20T00:35:58.158Z,12.93
2022-08-20T00:38:28.322Z,17.50
2022-08-20T00:40:59.819Z,14.63
2022-08-20T00:43:33.932Z,20.02
2022-08-20T00:46:07.741Z,11.38
2022-08-20T00:48:41.508Z,11.15
2022-08-20T00:51:15.434Z,11.32
2022-08-20T00:53:46.073Z,11.38
2022-08-20T00:56:15.834Z,14.70
2022-08-20T00:58:46.772Z,11.40
2022-08-20T01:01:17.610Z,19.58
2022-08-20T01:03:49.477Z,13.50
2022-08-20T01:06:18.969Z,20.65
2022-08-20T01:08:49.373Z,12.18
2022-08-20T01:11:22.278Z,14.40
2022-08-20T01:13:52.578Z,19.15
2022-08-20T01:16:28.118Z,18.45
2022-08-20T01:19:01.457Z,20.15
2022-08-20T01:21:34.519Z,14.15
2022-08-20T01:24:17.884Z,17.08
2022-08-20T01:26:50.986Z,16.05
2022-08-20T01:29:25.296Z,16.50
2022-08-20T01:32:01.512Z,19.02
2022-08-20T01:34:31.995Z,22.65
2022-08-20T01:37:02.029Z,20.40
2022-08-20T01:39:35.103Z,17.90
2022-08-20T01:42:14.265Z,15.98
2022-08-20T01:44:47.345Z,18.90
2022-08-20T01:47:20.208Z,16.30
2022-08-20T01:49:53.812Z,24.10
2022-08-20T01:52:31.474Z,19.92
2022-08-20T01:55:02.098Z,18.92
2022-08-20T01:57:35.245Z,19.70
2022-08-20T02:00:14.588Z,18.75
2022-08-20T02:02:49.596Z,23.38
2022-08-20T02:07:50.024Z,16.50
2022-08-20T02:10:20.574Z,17.90
2022-08-20T02:12:53.053Z,21.17
2022-08-20T02:15:34.819Z,19.05
2022-08-20T02:18:08.710Z,18.20
2022-08-20T02:20:38.700Z,18.00
2022-08-20T02:23:10.280Z,22.88
2022-08-20T02:25:41.869Z,26.38
2022-08-20T02:28:15.624Z,24.23
2022-08-20T02:30:48.584Z,20.70
2022-08-20T02:33:24.295Z,20.50
2022-08-20T02:35:57.261Z,19.85
2022-08-20T02:38:27.829Z,21.20
2022-08-20T02:43:27.951Z,23.88
2022-08-20T02:45:58.246Z,19.77
2022-08-20T02:48:28.422Z,21.67
2022-08-20T02:51:01.936Z,19.95
2022-08-20T02:53:33.534Z,26.58
2022-08-20T02:56:02.939Z,18.88
2022-08-20T02:58:35.632Z,19.15
2022-08-20T03:01:06.439Z,17.50
2022-08-20T03:03:36.656Z,26.80
2022-08-20T03:06:06.917Z,23.10
2022-08-20T03:08:38.281Z,24.55
2022-08-20T03:11:08.781Z,27.58
2022-08-20T03:13:40.338Z,21.23
2022-08-20T03:16:10.289Z,21.67
2022-08-20T03:18:44.455Z,19.13
2022-08-20T03:21:14.976Z,21.42
2022-08-20T03:23:46.291Z,20.55
2022-08-20T03:26:16.889Z,22.98
2022-08-20T03:28:49.418Z,18.95
2022-08-20T03:31:19.308Z,22.63
2022-08-20T03:33:53.410Z,21.30
2022-08-20T03:36:28.716Z,20.88
2022-08-20T03:39:00.808Z,25.02
2022-08-20T03:41:32.642Z,24.88
2022-08-20T03:44:04.893Z,23.02
2022-08-20T03:46:34.544Z,25.58
2022-08-20T03:51:56.209Z,30.73
2022-08-20T03:54:24.821Z,21.98
2022-08-20T03:57:02.568Z,20.42
2022-08-20T03:59:35.154Z,22.40
2022-08-20T04:02:04.697Z,21.17
2022-08-20T04:04:34.835Z,23.88
2022-08-20T04:07:11.589Z,23.20
2022-08-20T04:09:41.978Z,23.90
2022-08-20T04:12:13.320Z,22.25
2022-08-20T04:14:44.365Z,22.80
2022-08-20T04:17:15.599Z,21.42
2022-08-20T04:19:46.273Z,21.27
2022-08-20T04:22:16.345Z,22.15
2022-08-20T04:24:46.158Z,22.00
2022-08-20T04:27:16.322Z,26.70
2022-08-20T04:29:47.272Z,20.67
2022-08-20T04:32:17.918Z,27.80
2022-08-20T04:34:47.425Z,22.92
2022-08-20T04:37:21.357Z,24.43
2022-08-20T04:40:05.354Z,22.15
2022-08-20T04:42:35.009Z,25.00
2022-08-20T04:45:08.137Z,24.48
2022-08-20T04:47:37.677Z,25.73
2022-08-20T04:50:10.867Z,24.13
2022-08-20T04:52:40.312Z,24.38
2022-08-20T04:55:11.433Z,24.40
2022-08-20T04:57:41.587Z,25.55
2022-08-20T05:00:16.421Z,26.70
2022-08-20T05:02:46.559Z,29.05
2022-08-20T05:05:16.349Z,32.03
2022-08-20T05:07:47.393Z,29.77
2022-08-20T05:10:19.956Z,31.85
2022-08-20T05:12:56.624Z,26.65
2022-08-20T05:15:28.424Z,27.88
2022-08-20T05:18:01.028Z,27.30
2022-08-20T05:20:32.445Z,32.95
2022-08-20T05:23:02.794Z,30.67
2022-08-20T05:25:33.008Z,26.67
2022-08-20T05:28:05.975Z,29.45
2022-08-20T05:30:37.937Z,27.58
2022-08-20T05:33:09.109Z,28.38
2022-08-20T05:35:40.574Z,27.40
2022-08-20T05:38:12.730Z,30.38
2022-08-20T05:40:44.363Z,26.10
2022-08-20T05:43:13.941Z,26.27
2022-08-20T05:48:20.441Z,28.95
2022-08-20T05:50:52.162Z,31.70
2022-08-20T05:53:22.353Z,29.33
2022-08-20T05:55:52.832Z,39.03
2022-08-20T05:58:25.072Z,28.42
2022-08-20T06:00:57.035Z,29.88
2022-08-20T06:03:44.082Z,31.17
2022-08-20T06:06:15.109Z,28.30
2022-08-20T06:09:03.777Z,34.78
2022-08-20T06:11:37.214Z,30.40
2022-08-20T06:14:07.276Z,34.75
2022-08-20T06:19:11.273Z,32.28
2022-08-20T06:21:42.197Z,31.83
2022-08-20T06:26:41.106Z,35.58
2022-08-20T06:29:10.722Z,32.28
2022-08-20T06:31:41.701Z,36.22
2022-08-20T06:34:12.062Z,36.00
2022-08-20T06:36:42.211Z,33.35
2022-08-20T06:39:11.728Z,33.42
2022-08-20T06:41:41.127Z,31.63
2022-08-20T06:46:43.779Z,30.13
2022-08-20T06:49:14.672Z,32.95
2022-08-20T06:51:44.017Z,31.83
2022-08-20T06:56:44.422Z,33.22
2022-08-20T06:59:13.746Z,37.42
2022-08-20T07:01:45.231Z,37.25
2022-08-20T07:04:16.097Z,32.92
2022-08-20T07:06:46.073Z,34.22
2022-08-20T07:09:15.561Z,35.10
2022-08-20T07:11:44.996Z,33.72
2022-08-20T07:14:14.829Z,34.90
2022-08-20T07:16:47.350Z,34.33
2022-08-20T07:19:18.024Z,37.70
2022-08-20T07:21:47.910Z,32.60
2022-08-20T07:24:17.839Z,28.50
2022-08-20T07:26:47.238Z,26.65
2022-08-20T07:29:16.724Z,26.27
2022-08-20T07:32:09.937Z,24.20
2022-08-20T07:34:39.422Z,25.52
2022-08-20T07:37:14.577Z,23.33
2022-08-20T07:39:44.056Z,23.02
2022-08-20T07:42:13.433Z,29.77
2022-08-20T07:44:43.504Z,25.27
2022-08-20T07:47:14.355Z,24.80
2022-08-20T07:49:44.699Z,24.50
2022-08-20T07:52:14.432Z,22.98
2022-08-20T07:54:44.436Z,23.20
2022-08-20T07:57:14.505Z,24.52
2022-08-20T07:59:45.629Z,17.63
2022-08-20T08:02:17.888Z,19.83
2022-08-20T08:04:47.245Z,22.00
2022-08-20T08:07:17.157Z,14.00
2022-08-20T08:09:47.900Z,16.77
2022-08-20T08:12:18.713Z,18.00
2022-08-20T08:17:21.638Z,23.83
2022-08-20T08:19:52.617Z,17.92
2022-08-20T08:22:22.494Z,22.77
2022-08-20T08:24:57.377Z,18.77
2022-08-20T08:27:27.509Z,19.25
2022-08-20T08:29:57.551Z,16.48
2022-08-20T08:32:28.801Z,18.73
2022-08-20T08:35:00.131Z,16.52
2022-08-20T08:37:30.906Z,20.08
2022-08-20T08:40:01.914Z,20.35
2022-08-20T08:42:45.301Z,18.70
2022-08-20T08:45:17.384Z,17.25
2022-08-20T08:47:48.226Z,15.48
2022-08-20T08:50:50.189Z,16.83
2022-08-20T08:53:21.516Z,20.40
2022-08-20T08:55:51.492Z,18.52
2022-08-20T08:58:21.009Z,18.20
2022-08-20T09:00:56.204Z,19.48
2022-08-20T09:03:35.206Z,16.17
2022-08-20T09:06:05.357Z,18.17
2022-08-20T09:08:41.914Z,19.67
2022-08-20T09:11:11.418Z,13.52
2022-08-20T09:13:41.146Z,14.60
2022-08-20T09:16:10.701Z,19.60
2022-08-20T09:18:42.034Z,15.98
2022-08-20T09:21:12.430Z,17.83
2022-08-20T09:23:42.185Z,13.40
2022-08-20T09:26:12.214Z,16.90
2022-08-20T09:28:42.321Z,13.27
2022-08-20T09:31:12.097Z,16.92
2022-08-20T09:33:43.006Z,12.52
2022-08-20T09:36:29.052Z,16.23
2022-08-20T09:39:03.075Z,23.33
2022-08-20T09:41:34.750Z,16.38
2022-08-20T09:44:04.338Z,18.50
2022-08-20T09:46:34.626Z,16.65
2022-08-20T09:49:05.599Z,14.27
2022-08-20T09:51:38.586Z,15.90
2022-08-20T09:54:08.493Z,10.68
2022-08-20T09:56:37.850Z,15.10
2022-08-20T10:01:37.037Z,12.63
2022-08-20T10:04:08.309Z,13.25
2022-08-20T10:06:41.861Z,14.57
2022-08-20T10:09:11.356Z,21.35
2022-08-20T10:14:10.556Z,21.73
2022-08-20T10:16:39.934Z,18.63
2022-08-20T10:21:40.463Z,16.30
2022-08-20T10:24:09.940Z,12.13
2022-08-20T10:26:40.466Z,15.57
2022-08-20T10:29:10.002Z,16.65
2022-08-20T10:31:39.397Z,20.52
2022-08-20T10:34:09.508Z,14.88
2022-08-20T10:36:40.553Z,16.13
2022-08-20T10:39:10.572Z,12.90
2022-08-20T10:41:40.034Z,14.43
2022-08-20T10:44:10.064Z,10.50
2022-08-20T10:46:39.823Z,15.27
2022-08-20T10:49:09.362Z,13.52
2022-08-20T10:51:40.334Z,10.68
2022-08-20T10:54:12.418Z,12.50
2022-08-20T10:56:42.623Z,13.15
2022-08-20T10:59:12.726Z,11.88
2022-08-20T11:01:42.255Z,14.93
2022-08-20T11:04:11.634Z,17.73
2022-08-20T11:06:42.685Z,12.68
2022-08-20T11:09:12.462Z,15.55
2022-08-20T11:11:42.278Z,16.48
2022-08-20T11:14:11.777Z,14.68
2022-08-20T11:16:41.305Z,17.40
2022-08-20T11:19:11.253Z,14.50
2022-08-20T11:21:42.184Z,13.25
2022-08-20T11:24:12.254Z,14.98
2022-08-20T11:26:42.299Z,11.57
2022-08-20T11:29:12.042Z,11.48
2022-08-20T11:31:41.918Z,12.77
2022-08-20T11:36:45.448Z,18.65
2022-08-20T11:39:15.442Z,13.45
2022-08-20T11:41:45.886Z,14.63
2022-08-20T11:44:20.915Z,15.82
2022-08-20T11:46:51.460Z,14.55
2022-08-20T11:49:20.850Z,15.73
2022-08-20T11:51:51.678Z,16.50
2022-08-20T11:54:21.633Z,11.20
2022-08-20T11:56:51.232Z,13.55
2022-08-20T11:59:21.298Z,13.73
2022-08-20T12:02:02.473Z,13.63
2022-08-20T12:04:34.922Z,13.18
2022-08-20T12:07:14.663Z,17.13
2022-08-20T12:09:50.545Z,16.58
2022-08-20T12:12:23.207Z,14.57
2022-08-20T12:14:53.021Z,19.55
2022-08-20T12:17:27.190Z,19.08
2022-08-20T12:19:58.213Z,22.45
2022-08-20T12:22:29.439Z,21.58
2022-08-20T12:24:59.001Z,32.28
2022-08-20T12:27:30.941Z,28.30
2022-08-20T12:30:02.009Z,29.67
2022-08-20T12:32:33.484Z,30.15
2022-08-20T12:35:03.265Z,30.75
2022-08-20T12:37:34.877Z,30.60
2022-08-20T12:40:08.453Z,31.25
2022-08-20T12:42:38.811Z,35.75
2022-08-20T12:45:09.585Z,31.35
2022-08-20T12:47:41.766Z,31.27
2022-08-20T12:50:18.454Z,33.25
2022-08-20T12:52:50.485Z,31.38
2022-08-20T12:55:21.545Z,32.15
2022-08-20T12:57:56.806Z,33.58
2022-08-20T13:00:28.693Z,30.13
2022-08-20T13:03:02.372Z,30.08
2022-08-20T13:05:32.933Z,36.17
2022-08-20T13:08:04.966Z,31.55
2022-08-20T13:10:36.156Z,29.17
2022-08-20T13:13:06.386Z,27.00
2022-08-20T13:15:35.946Z,30.70
2022-08-20T13:18:07.185Z,30.38
2022-08-20T13:20:37.648Z,35.70
2022-08-20T13:23:08.737Z,34.50
2022-08-20T13:25:38.757Z,42.55
2022-08-20T13:28:08.605Z,39.10
2022-08-20T13:30:39.486Z,42.13
2022-08-20T13:33:09.585Z,43.00
2022-08-20T13:35:39.337Z,39.03
2022-08-20T13:38:10.503Z,42.78
2022-08-20T13:40:40.503Z,51.40
2022-08-20T13:43:12.120Z,45.50
2022-08-20T13:45:43.088Z,51.53
2022-08-20T13:50:47.405Z,45.67
2022-08-20T13:53:19.189Z,48.53
2022-08-20T13:55:49.022Z,57.97
2022-08-20T13:58:19.276Z,46.92
2022-08-20T14:00:48.734Z,49.97
2022-08-20T14:03:20.136Z,56.67
2022-08-20T14:05:55.364Z,42.90
2022-08-20T14:08:26.915Z,41.30
2022-08-20T14:10:56.665Z,43.03
2022-08-20T14:15:57.480Z,44.55
2022-08-20T14:18:27.450Z,40.40
2022-08-20T14:20:57.246Z,43.25
2022-08-20T14:23:28.314Z,36.65
2022-08-20T14:25:58.300Z,38.00
2022-08-20T14:28:27.858Z,28.33
2022-08-20T14:30:57.297Z,25.55
2022-08-20T14:33:27.098Z,26.65
2022-08-20T14:35:56.727Z,32.65
2022-08-20T14:38:27.658Z,27.50
2022-08-20T14:40:57.968Z,31.63
2022-08-20T14:43:27.354Z,31.23
2022-08-20T14:45:56.887Z,29.10
2022-08-20T14:48:28.498Z,31.70
2022-08-20T14:50:59.742Z,39.42
2022-08-20T14:53:31.073Z,38.42
2022-08-20T14:56:00.500Z,36.40
2022-08-20T14:58:30.444Z,34.92
2022-08-20T15:00:59.893Z,37.87
2022-08-20T15:03:30.978Z,36.43
2022-08-20T15:06:00.865Z,34.38
2022-08-20T15:08:32.123Z,35.10
2022-08-20T15:11:02.377Z,41.28
2022-08-20T15:13:32.119Z,43.58
2022-08-20T15:16:01.545Z,38.95
2022-08-20T15:18:31.465Z,31.98
2022-08-20T15:21:00.910Z,31.08
2022-08-20T15:23:31.894Z,31.98
2022-08-20T15:26:01.646Z,37.88
2022-08-20T15:28:31.350Z,36.60
2022-08-20T15:31:01.000Z,36.97
2022-08-20T15:33:31.153Z,36.67
2022-08-20T15:36:00.821Z,34.00
2022-08-20T15:38:33.293Z,31.33
2022-08-20T15:41:03.153Z,39.72
2022-08-20T15:43:33.937Z,40.25
2022-08-20T15:46:06.450Z,37.38
2022-08-20T15:48:40.231Z,38.78
2022-08-20T15:51:24.438Z,34.92
2022-08-20T15:54:00.860Z,27.65
2022-08-20T15:56:51.869Z,29.20
2022-08-20T15:59:46.088Z,29.23
2022-08-20T16:02:33.676Z,30.83
2022-08-20T16:05:16.316Z,24.48
2022-08-20T16:07:56.218Z,27.67
2022-08-20T16:10:32.834Z,28.67
2022-08-20T16:13:08.121Z,28.17
2022-08-20T16:15:41.177Z,30.23
2022-08-20T16:18:21.078Z,26.55
2022-08-20T16:20:54.206Z,27.33
2022-08-20T16:23:35.807Z,20.98
2022-08-20T16:26:18.793Z,27.95
2022-08-20T16:28:59.632Z,19.98
2022-08-20T16:31:33.807Z,30.00
2022-08-20T16:34:32.281Z,26.77
2022-08-20T16:37:12.145Z,27.33
2022-08-20T16:39:48.503Z,20.45
2022-08-20T16:42:25.457Z,19.63
2022-08-20T16:44:57.158Z,26.23
2022-08-20T16:47:30.587Z,25.73
2022-08-20T16:50:04.148Z,23.30
2022-08-20T16:52:33.804Z,22.95
2022-08-20T16:55:03.841Z,24.63
2022-08-20T16:57:34.798Z,24.98
2022-08-20T17:00:12.715Z,23.73
2022-08-20T17:02:52.550Z,22.92
2022-08-20T17:07:55.459Z,23.10
2022-08-20T17:10:30.848Z,25.20
2022-08-20T17:13:07.416Z,25.77
2022-08-20T17:15:37.532Z,24.38
2022-08-20T17:18:22.589Z,23.08
2022-08-20T17:20:52.963Z,26.95
2022-08-20T17:23:24.494Z,32.25
2022-08-20T17:26:00.197Z,29.30
2022-08-20T17:28:35.383Z,27.80
2022-08-20T17:31:05.456Z,28.50
2022-08-20T17:33:37.738Z,35.57
2022-08-20T17:36:12.557Z,30.42
2022-08-20T17:38:48.157Z,27.35
2022-08-20T17:41:24.769Z,29.13
2022-08-20T17:44:02.494Z,29.15
2022-08-20T17:46:36.145Z,32.65
2022-08-20T17:49:10.872Z,29.52
2022-08-20T17:51:46.546Z,31.25
2022-08-20T17:54:22.854Z,34.15
2022-08-20T17:56:57.046Z,34.10
2022-08-20T18:00:00.650Z,30.38
2022-08-20T18:02:23.744Z,32.75
2022-08-20T18:04:56.035Z,32.30
2022-08-20T18:07:28.674Z,38.90
2022-08-20T18:10:03.461Z,33.92
2022-08-20T18:12:37.614Z,34.97
2022-08-20T18:15:15.053Z,37.38
2022-08-20T18:18:13.900Z,40.90
2022-08-20T18:21:13.157Z,36.90
2022-08-20T18:23:47.549Z,35.93
2022-08-20T18:26:22.417Z,39.28
2022-08-20T18:28:55.869Z,41.08
2022-08-20T18:31:31.985Z,36.00
2022-08-20T18:34:13.369Z,38.97
2022-08-20T18:36:43.369Z,38.75
2022-08-20T18:39:26.124Z,37.20
2022-08-20T18:42:01.630Z,44.05
2022-08-20T18:44:39.947Z,35.53
2022-08-20T18:47:23.153Z,36.38
2022-08-20T18:50:15.760Z,35.60
2022-08-20T18:52:49.589Z,33.75
2022-08-20T18:55:31.912Z,37.75
2022-08-20T18:58:03.526Z,34.15
2022-08-20T19:00:43.252Z,35.72
2022-08-20T19:03:23.557Z,35.30
2022-08-20T19:06:18.369Z,35.35
2022-08-20T19:08:53.398Z,31.92
2022-08-20T19:11:44.325Z,33.80
2022-08-20T19:14:46.209Z,34.33
2022-08-20T19:17:19.858Z,32.03
2022-08-20T19:20:02.040Z,33.05
2022-08-20T19:22:33.957Z,33.28
2022-08-20T19:25:03.529Z,29.60
2022-08-20T19:27:33.438Z,35.65
2022-08-20T19:30:02.942Z,30.90
2022-08-20T19:32:38.698Z,32.57
2022-08-20T19:35:19.674Z,31.55
2022-08-20T19:37:51.044Z,31.73
2022-08-20T19:40:27.618Z,32.08
2022-08-20T19:43:00.352Z,31.20
2022-08-20T19:45:37.799Z,32.40
2022-08-20T19:48:30.917Z,38.50
2022-08-20T19:51:08.130Z,30.83
2022-08-20T19:53:38.728Z,33.10
2022-08-20T19:56:13.729Z,32.25
2022-08-20T19:58:43.446Z,32.20
2022-08-20T20:03:58.886Z,32.05
2022-08-20T20:06:34.238Z,30.33
2022-08-20T20:09:06.362Z,33.22
2022-08-20T20:11:42.490Z,31.50
2022-08-20T20:14:14.768Z,30.08
2022-08-20T20:16:47.572Z,28.13
2022-08-20T20:19:27.135Z,27.80
2022-08-20T20:24:51.493Z,33.50
2022-08-20T20:27:25.547Z,27.15
2022-08-20T20:30:01.364Z,31.48
2022-08-20T20:32:34.177Z,28.63
2022-08-20T20:35:07.867Z,28.58
2022-08-20T20:37:50.722Z,33.70
2022-08-20T20:40:27.462Z,31.02
2022-08-20T20:43:03.900Z,30.88
2022-08-20T20:45:36.223Z,29.90
2022-08-20T20:48:21.558Z,29.75
2022-08-20T20:50:52.997Z,28.85
2022-08-20T20:53:51.131Z,34.75
2022-08-20T20:56:33.085Z,27.48
2022-08-20T20:59:06.599Z,33.22
2022-08-20T21:01:48.616Z,30.20
2022-08-20T21:04:21.867Z,30.80
2022-08-20T21:06:52.747Z,28.23
2022-08-20T21:09:26.604Z,27.63
2022-08-20T21:11:56.096Z,27.60
2022-08-20T21:14:25.846Z,29.80
2022-08-20T21:16:55.593Z,25.43
2022-08-20T21:19:25.260Z,29.70
2022-08-20T21:21:55.184Z,25.05
2022-08-20T21:24:26.381Z,30.25
2022-08-20T21:26:56.551Z,24.90
2022-08-20T21:29:32.327Z,25.55
2022-08-20T21:32:02.446Z,25.58
2022-08-20T21:34:32.156Z,25.50
2022-08-20T21:37:01.477Z,26.85
2022-08-20T21:39:33.046Z,27.88
2022-08-20T21:42:22.959Z,26.58
2022-08-20T21:44:56.448Z,29.63
2022-08-20T21:47:25.985Z,29.25
2022-08-20T21:49:56.501Z,25.60
2022-08-20T21:52:26.654Z,29.00
2022-08-20T21:57:33.544Z,30.50
2022-08-20T22:00:05.900Z,30.35
2022-08-20T22:02:35.507Z,29.92
2022-08-20T22:05:05.558Z,31.40
2022-08-20T22:07:35.053Z,31.58
2022-08-20T22:10:07.592Z,30.92
2022-08-20T22:12:37.426Z,30.08
2022-08-20T22:17:37.385Z,30.90
2022-08-20T22:20:09.089Z,35.83
2022-08-20T22:22:39.048Z,33.60
2022-08-20T22:25:12.834Z,36.55
2022-08-20T22:27:43.486Z,34.47
2022-08-20T22:30:13.923Z,34.72
2022-08-20T22:32:52.394Z,37.88
2022-08-20T22:35:22.013Z,38.22
2022-08-20T22:37:52.113Z,46.45
2022-08-20T22:40:23.133Z,43.80
2022-08-20T22:42:53.340Z,43.00
2022-08-20T22:45:22.738Z,40.65
2022-08-20T22:47:52.322Z,55.78
2022-08-20T22:50:24.383Z,57.20
2022-08-20T22:52:54.474Z,59.30
2022-08-20T22:57:54.821Z,55.47
2022-08-20T23:00:27.113Z,56.85
2022-08-20T23:02:59.357Z,48.60
2022-08-20T23:05:32.312Z,42.35
2022-08-20T23:08:02.780Z,50.42
2022-08-20T23:10:35.181Z,32.28
2022-08-20T23:13:05.013Z,29.77
2022-08-20T23:18:15.731Z,28.50
2022-08-20T23:20:50.277Z,27.60
2022-08-20T23:23:20.654Z,38.05
2022-08-20T23:25:52.865Z,32.53
2022-08-20T23:28:24.528Z,30.98
2022-08-20T23:30:54.814Z,30.33
2022-08-20T23:33:24.316Z,25.83
2022-08-20T23:35:53.661Z,28.30
2022-08-20T23:38:23.665Z,27.43
2022-08-20T23:40:54.455Z,22.13
2022-08-20T23:43:24.517Z,25.80
2022-08-20T23:45:53.993Z,21.55
2022-08-20T23:48:23.805Z,23.60
2022-08-20T23:50:53.786Z,22.42
2022-08-20T23:53:23.131Z,22.77
2022-08-20T23:55:54.606Z,20.40
2022-08-20T23:58:24.397Z,20.15
